createdAt,value
2022-08-05T00:01:28.588Z,100535.06
2022-08-05T00:06:05.165Z,100527.31
2022-08-05T00:09:52.020Z,100529.50
2022-08-05T00:13:56.029Z,100519.34
2022-08-05T00:17:57.441Z,100514.94
2022-08-05T00:22:04.346Z,100520.38
2022-08-05T00:26:07.046Z,100511.66
2022-08-05T00:30:11.607Z,100508.56
2022-08-05T00:34:56.203Z,100508.28
2022-08-05T00:38:36.766Z,100503.22
2022-08-05T00:42:42.301Z,100514.25
2022-08-05T00:46:54.183Z,100515.03
2022-08-05T00:51:08.915Z,100522.16
2022-08-05T00:55:42.303Z,100550.81
2022-08-05T00:59:45.507Z,100542.81
2022-08-05T01:03:50.036Z,100531.88
2022-08-05T01:08:30.677Z,100533.19
2022-08-05T01:12:18.813Z,100534.47
2022-08-05T01:16:59.943Z,100546.03
2022-08-05T01:21:38.034Z,100559.66
2022-08-05T01:25:54.054Z,100548.81
2022-08-05T01:29:59.894Z,100547.56
2022-08-05T01:34:12.319Z,100568.44
2022-08-05T01:38:26.916Z,100530.56
2022-08-05T01:42:31.540Z,100544.09
2022-08-05T01:46:42.175Z,100526.59
2022-08-05T01:50:50.865Z,100544.31
2022-08-05T01:54:56.119Z,100532.28
2022-08-05T01:59:00.303Z,100541.84
2022-08-05T02:03:24.325Z,100526.78
2022-08-05T02:07:32.152Z,100525.88
2022-08-05T02:11:52.308Z,100530.28
2022-08-05T02:16:01.495Z,100512.06
2022-08-05T02:20:09.645Z,100527.66
2022-08-05T02:24:17.990Z,100521.09
2022-08-05T02:28:29.338Z,100527.13
2022-08-05T02:32:34.103Z,100527.50
2022-08-05T02:36:38.679Z,100535.50
2022-08-05T02:40:43.509Z,100535.59
2022-08-05T02:44:46.980Z,100530.81
2022-08-05T02:48:49.660Z,100528.50
2022-08-05T02:52:54.280Z,100533.09
2022-08-05T02:56:56.613Z,100518.09
2022-08-05T03:01:01.983Z,100519.13
2022-08-05T03:05:06.868Z,100521.25
2022-08-05T03:09:12.273Z,100512.84
2022-08-05T03:13:19.081Z,100513.28
2022-08-05T03:17:29.230Z,100500.97
2022-08-05T03:21:33.079Z,100498.38
2022-08-05T03:26:04.762Z,100498.13
2022-08-05T03:30:07.770Z,100486.34
2022-08-05T03:34:10.649Z,100494.25
2022-08-05T03:38:14.501Z,100500.69
2022-08-05T03:42:16.115Z,100511.34
2022-08-05T03:46:17.573Z,100511.94
2022-08-05T03:50:20.347Z,100518.78
2022-08-05T03:55:50.834Z,100510.50
2022-08-05T03:58:55.400Z,100510.28
2022-08-05T04:03:02.978Z,100521.13
2022-08-05T04:07:06.855Z,100531.94
2022-08-05T04:11:09.906Z,100529.16
2022-08-05T04:15:15.698Z,100516.81
2022-08-05T04:19:18.301Z,100502.31
2022-08-05T04:24:04.861Z,100503.16
2022-08-05T04:27:57.490Z,100508.75
2022-08-05T04:32:01.275Z,100523.75
2022-08-05T04:36:15.889Z,100539.56
2022-08-05T04:40:24.312Z,100552.41
2022-08-05T04:44:30.235Z,100553.09
2022-08-05T04:48:32.882Z,100554.78
2022-08-05T04:52:34.451Z,100548.59
2022-08-05T04:56:37.014Z,100538.22
2022-08-05T05:00:40.152Z,100546.66
2022-08-05T05:04:47.633Z,100545.25
2022-08-05T05:08:50.117Z,100545.69
2022-08-05T05:12:51.727Z,100549.78
2022-08-05T05:16:53.150Z,100555.81
2022-08-05T05:20:56.150Z,100558.53
2022-08-05T05:25:01.290Z,100566.50
2022-08-05T05:29:17.790Z,100578.72
2022-08-05T05:33:23.142Z,100617.94
2022-08-05T05:37:37.322Z,100613.97
2022-08-05T05:41:46.482Z,100606.00
2022-08-05T05:45:55.813Z,100588.41
2022-08-05T05:50:01.579Z,100598.47
2022-08-05T05:54:05.582Z,100617.06
2022-08-05T05:58:13.118Z,100650.06
2022-08-05T06:02:15.785Z,100680.16
2022-08-05T06:06:18.323Z,100657.56
2022-08-05T06:10:19.772Z,100678.09
2022-08-05T06:14:25.256Z,100693.75
2022-08-05T06:18:31.336Z,100719.47
2022-08-05T06:22:34.682Z,100723.75
2022-08-05T06:26:36.172Z,100734.97
2022-08-05T06:30:37.674Z,100706.00
2022-08-05T06:34:39.347Z,100696.84
2022-08-05T06:38:47.037Z,100682.72
2022-08-05T06:42:51.534Z,100688.16
2022-08-05T06:46:54.538Z,100691.31
2022-08-05T06:50:56.436Z,100694.47
2022-08-05T06:54:57.838Z,100692.31
2022-08-05T06:58:59.365Z,100681.66
2022-08-05T07:03:01.883Z,100686.50
2022-08-05T07:07:03.557Z,100691.81
2022-08-05T07:11:15.228Z,100704.03
2022-08-05T07:16:01.723Z,100707.53
2022-08-05T07:20:31.513Z,100736.13
2022-08-05T07:24:18.848Z,100741.41
2022-08-05T07:28:22.492Z,100733.59
2022-08-05T07:32:24.249Z,100730.94
2022-08-05T07:36:27.880Z,100736.94
2022-08-05T07:40:32.048Z,100738.44
2022-08-05T07:44:34.653Z,100729.38
2022-08-05T07:49:01.472Z,100739.34
2022-08-05T07:52:59.216Z,100722.88
2022-08-05T07:57:17.965Z,100705.13
2022-08-05T08:01:27.667Z,100728.50
2022-08-05T08:05:31.494Z,100728.91
2022-08-05T08:09:41.092Z,100724.81
2022-08-05T08:14:00.839Z,100716.09
2022-08-05T08:18:05.051Z,100709.63
2022-08-05T08:22:10.126Z,100679.50
2022-08-05T08:26:17.430Z,100684.16
2022-08-05T08:30:39.226Z,100710.81
2022-08-05T08:34:48.768Z,100735.44
2022-08-05T08:38:53.229Z,100759.31
2022-08-05T08:42:56.648Z,100769.03
2022-08-05T08:46:58.958Z,100723.03
2022-08-05T08:51:22.406Z,100749.53
2022-08-05T08:55:31.991Z,100784.16
2022-08-05T08:59:47.148Z,100777.13
2022-08-05T09:03:55.060Z,100771.00
2022-08-05T09:07:59.562Z,100778.69
2022-08-05T09:12:13.547Z,100788.41
2022-08-05T09:16:22.710Z,100805.91
2022-08-05T09:20:37.324Z,100806.75
2022-08-05T09:24:39.685Z,100804.91
2022-08-05T09:28:41.635Z,100818.25
2022-08-05T09:32:46.102Z,100822.81
2022-08-05T09:36:54.621Z,100813.19
2022-08-05T09:41:02.503Z,100810.41
2022-08-05T09:46:05.115Z,100814.03
2022-08-05T09:49:57.087Z,100777.28
2022-08-05T09:53:59.291Z,100760.72
2022-08-05T09:58:14.154Z,100754.59
2022-08-05T10:02:30.954Z,100751.88
2022-08-05T10:06:34.073Z,100745.75
2022-08-05T10:10:50.247Z,100711.09
2022-08-05T10:15:13.910Z,100743.25
2022-08-05T10:19:23.700Z,100765.81
2022-08-05T10:23:59.467Z,100756.50
2022-08-05T10:28:13.021Z,100793.97
2022-08-05T10:33:01.706Z,100843.44
2022-08-05T10:36:41.811Z,100840.75
2022-08-05T10:40:52.155Z,100825.84
2022-08-05T10:45:00.094Z,100793.44
2022-08-05T10:49:08.110Z,100799.81
2022-08-05T10:53:38.223Z,100810.44
2022-08-05T10:57:45.285Z,100808.41
2022-08-05T11:01:55.216Z,100779.53
2022-08-05T11:06:15.070Z,100763.53
2022-08-05T11:10:27.223Z,100767.94
2022-08-05T11:14:57.358Z,100765.69
2022-08-05T11:20:10.007Z,100805.91
2022-08-05T11:24:03.182Z,100807.59
2022-08-05T11:28:17.252Z,100827.47
2022-08-05T11:32:25.372Z,100813.28
2022-08-05T11:36:42.700Z,100824.97
2022-08-05T11:41:54.709Z,100829.25
2022-08-05T11:46:15.309Z,100833.53
2022-08-05T11:50:09.861Z,100814.88
2022-08-05T11:54:33.705Z,100819.41
2022-08-05T11:58:41.498Z,100820.59
2022-08-05T12:02:54.481Z,100823.66
2022-08-05T12:07:00.327Z,100824.00
2022-08-05T12:11:06.002Z,100817.28
2022-08-05T12:15:18.259Z,100822.72
2022-08-05T12:20:25.995Z,100827.94
2022-08-05T12:23:57.490Z,100827.69
2022-08-05T12:28:02.386Z,100826.41
2022-08-05T12:32:05.414Z,100823.38
2022-08-05T12:36:09.867Z,100808.72
2022-08-05T12:40:20.675Z,100814.72
2022-08-05T12:44:33.487Z,100815.78
2022-08-05T12:48:38.980Z,100817.63
2022-08-05T12:52:42.420Z,100820.56
2022-08-05T12:56:48.316Z,100820.91
2022-08-05T13:02:00.490Z,100824.22
2022-08-05T13:05:15.015Z,100819.63
2022-08-05T13:09:27.910Z,100814.06
2022-08-05T13:14:06.743Z,100815.78
2022-08-05T13:17:59.298Z,100820.03
2022-08-05T13:22:00.899Z,100822.09
2022-08-05T13:26:05.723Z,100817.88
2022-08-05T13:30:34.318Z,100826.19
2022-08-05T13:34:32.436Z,100821.47
2022-08-05T13:38:36.189Z,100819.56
2022-08-05T13:42:40.501Z,100816.59
2022-08-05T13:47:04.771Z,100824.72
2022-08-05T13:51:13.968Z,100816.88
2022-08-05T13:55:41.801Z,100833.34
2022-08-05T13:59:57.534Z,100824.31
2022-08-05T14:04:19.676Z,100820.97
2022-08-05T14:08:27.761Z,100830.25
2022-08-05T14:12:34.189Z,100832.16
2022-08-05T14:16:35.747Z,100829.59
2022-08-05T14:20:37.216Z,100826.53
2022-08-05T14:24:40.186Z,100834.47
2022-08-05T14:28:52.095Z,100832.41
2022-08-05T14:32:54.256Z,100848.56
2022-08-05T14:36:58.224Z,100856.97
2022-08-05T14:41:01.634Z,100851.28
2022-08-05T14:45:08.947Z,100860.75
2022-08-05T14:49:10.520Z,100859.94
2022-08-05T14:53:12.583Z,100857.41
2022-08-05T14:57:15.497Z,100854.34
2022-08-05T15:01:24.233Z,100850.78
2022-08-05T15:06:07.386Z,100841.72
2022-08-05T15:10:03.278Z,100844.25
2022-08-05T15:14:04.960Z,100838.84
2022-08-05T15:18:06.556Z,100845.34
2022-08-05T15:22:08.770Z,100851.34
2022-08-05T15:26:10.502Z,100838.88
2022-08-05T15:30:14.170Z,100854.16
2022-08-05T15:34:32.337Z,100863.56
2022-08-05T15:38:41.276Z,100876.59
2022-08-05T15:42:54.092Z,100873.34
2022-08-05T15:47:01.513Z,100894.94
2022-08-05T15:51:05.623Z,100894.38
2022-08-05T15:55:16.122Z,100899.72
2022-08-05T15:59:21.828Z,100879.06
2022-08-05T16:03:23.960Z,100907.13
2022-08-05T16:07:25.775Z,100913.25
2022-08-05T16:11:42.508Z,100921.63
2022-08-05T16:15:45.075Z,100926.31
2022-08-05T16:20:04.959Z,100922.56
2022-08-05T16:24:35.810Z,100931.78
2022-08-05T16:28:32.259Z,100947.75
2022-08-05T16:32:33.765Z,100945.84
2022-08-05T16:36:35.982Z,100962.63
2022-08-05T16:40:47.801Z,100994.72
2022-08-05T16:44:57.045Z,100990.34
2022-08-05T16:48:59.139Z,100984.97
2022-08-05T16:53:01.600Z,100985.19
2022-08-05T16:57:14.993Z,100998.69
2022-08-05T17:01:24.498Z,100999.16
2022-08-05T17:05:26.106Z,101001.88
2022-08-05T17:09:30.084Z,101017.00
2022-08-05T17:13:37.250Z,101032.00
2022-08-05T17:17:43.966Z,101049.53
2022-08-05T17:21:51.387Z,101066.88
2022-08-05T17:25:53.176Z,101071.06
2022-08-05T17:29:59.744Z,101073.53
2022-08-05T17:34:03.676Z,101092.94
2022-08-05T17:38:07.832Z,101092.34
2022-08-05T17:42:19.842Z,101098.63
2022-08-05T17:46:24.275Z,101106.44
2022-08-05T17:50:30.079Z,101119.78
2022-08-05T17:54:33.855Z,101123.31
2022-08-05T17:58:37.672Z,101129.38
2022-08-05T18:02:39.137Z,101134.22
2022-08-05T18:06:40.627Z,101131.22
2022-08-05T18:10:47.328Z,101127.50
2022-08-05T18:14:51.357Z,101138.78
2022-08-05T18:18:53.033Z,101150.81
2022-08-05T18:22:57.331Z,101170.28
2022-08-05T18:26:59.304Z,101160.19
2022-08-05T18:31:00.941Z,101176.19
2022-08-05T18:35:02.452Z,101193.09
2022-08-05T18:39:22.387Z,101188.09
2022-08-05T18:43:31.704Z,101187.63
2022-08-05T18:47:39.890Z,101202.38
2022-08-05T18:52:05.066Z,101217.38
2022-08-05T18:56:12.612Z,101207.81
2022-08-05T19:00:20.244Z,101223.75
2022-08-05T19:04:24.050Z,101231.91
2022-08-05T19:08:30.324Z,101217.63
2022-08-05T19:12:33.676Z,101233.59
2022-08-05T19:16:46.885Z,101247.47
2022-08-05T19:20:51.556Z,101253.16
2022-08-05T19:24:54.236Z,101273.03
2022-08-05T19:28:57.961Z,101262.69
2022-08-05T19:32:59.448Z,101264.44
2022-08-05T19:37:01.153Z,101265.25
2022-08-05T19:41:06.678Z,101280.06
2022-08-05T19:45:09.721Z,101289.06
2022-08-05T19:49:17.174Z,101299.00
2022-08-05T19:54:03.411Z,101304.66
2022-08-05T19:58:00.534Z,101305.88
2022-08-05T20:02:02.801Z,101307.03
2022-08-05T20:06:15.234Z,101308.72
2022-08-05T20:10:19.311Z,101310.38
2022-08-05T20:14:27.072Z,101316.78
2022-08-05T20:18:33.927Z,101317.97
2022-08-05T20:22:37.858Z,101317.22
2022-08-05T20:26:43.021Z,101322.84
2022-08-05T20:30:44.442Z,101332.91
2022-08-05T20:34:46.610Z,101353.78
2022-08-05T20:38:54.412Z,101363.41
2022-08-05T20:43:00.216Z,101369.06
2022-08-05T20:47:05.317Z,101384.31
2022-08-05T20:51:09.031Z,101391.16
2022-08-05T20:55:55.083Z,101395.16
2022-08-05T20:59:46.253Z,101406.00
2022-08-05T21:03:55.066Z,101422.47
2022-08-05T21:07:56.571Z,101428.91
2022-08-05T21:12:09.902Z,101426.09
2022-08-05T21:16:12.826Z,101422.06
2022-08-05T21:20:14.591Z,101436.91
2022-08-05T21:24:34.597Z,101444.16
2022-08-05T21:28:36.023Z,101430.09
2022-08-05T21:32:39.928Z,101439.75
2022-08-05T21:36:46.592Z,101442.50
2022-08-05T21:40:50.653Z,101442.97
2022-08-05T21:44:52.138Z,101435.31
2022-08-05T21:48:56.581Z,101439.72
2022-08-05T21:52:58.929Z,101450.50
2022-08-05T21:57:29.662Z,101462.91
2022-08-05T22:01:28.359Z,101466.50
2022-08-05T22:05:48.781Z,101462.19
2022-08-05T22:09:50.919Z,101452.41
2022-08-05T22:14:19.586Z,101448.34
2022-08-05T22:18:14.427Z,101465.97
2022-08-05T22:22:16.179Z,101490.50
2022-08-05T22:26:40.176Z,101482.09
2022-08-05T22:30:56.230Z,101485.25
2022-08-05T22:34:59.362Z,101490.78
2022-08-05T22:39:09.070Z,101497.72
2022-08-05T22:43:11.047Z,101495.53
2022-08-05T22:47:14.876Z,101498.16
2022-08-05T22:52:05.620Z,101492.84
2022-08-05T22:55:56.490Z,101504.19
2022-08-05T22:59:58.829Z,101507.53
2022-08-05T23:04:00.490Z,101500.91
2022-08-05T23:08:03.902Z,101505.09
2022-08-05T23:12:05.711Z,101502.59
2022-08-05T23:16:07.564Z,101512.69
2022-08-05T23:20:17.970Z,101517.72
2022-08-05T23:24:19.646Z,101518.56
2022-08-05T23:28:22.090Z,101519.25
2022-08-05T23:32:25.642Z,101526.19
2022-08-05T23:36:38.299Z,101543.13
2022-08-05T23:40:42.252Z,101544.91
2022-08-05T23:44:54.334Z,101560.50
2022-08-05T23:49:01.114Z,101551.44
2022-08-05T23:53:03.444Z,101553.63
2022-08-05T23:57:05.793Z,101565.81
